Time;durP1;ratioP1;P1;durP2;ratioP2;P2;SDS_P1;SDS_P2;PMS_P1;PMS_P2;Temp;Humidity;BMP_temperature;BMP_pressure;BME280_temperature;BME280_humidity;BME280_pressure;Samples;Min_cycle;Max_cycle;Signal;HPM_P1;HPM_P2
2021/12/08 00:00:27;;;;;;;9.88;3.97;;;;;;;;;;5032323;28;20048;-82
2021/12/08 00:02:54;;;;;;;14.15;3.08;;;;;;;;;;5033914;28;20045;-82
2021/12/08 00:05:20;;;;;;;8.35;3.42;;;;;;;;;;5033392;28;20416;-82
2021/12/08 00:07:47;;;;;;;11.05;3.75;;;;;;;;;;5032263;28;20056;-82
2021/12/08 00:15:28;;;;;;;8.00;3.33;;;;;;;;;;5033463;28;20042;-82
2021/12/08 00:17:54;;;;;;;12.20;3.60;;;;;;;;;;5033643;28;20044;-83
2021/12/08 00:20:21;;;;;;;11.63;3.72;;;;;;;;;;5033288;28;20049;-82
2021/12/08 00:22:47;;;;;;;11.73;3.72;;;;;;;;;;5033241;28;20061;-82
2021/12/08 00:25:13;;;;;;;11.18;4.55;;;;;;;;;;5031801;28;20053;-82
2021/12/08 00:27:39;;;;;;;9.23;3.72;;;;;;;;;;5033273;28;20076;-82
2021/12/08 00:30:06;;;;;;;10.07;3.72;;;;;;;;;;5031660;28;20045;-82
2021/12/08 00:32:34;;;;;;;9.65;3.70;;;;;;;;;;5033302;28;20076;-81
2021/12/08 00:35:00;;;;;;;12.23;3.70;;;;;;;;;;5033310;28;20052;-82
2021/12/08 00:37:27;;;;;;;9.65;3.40;;;;;;;;;;5031672;28;20049;-82
2021/12/08 00:39:54;;;;;;;14.10;3.55;;;;;;;;;;5032152;28;20052;-82
2021/12/08 00:42:20;;;;;;;7.43;3.20;;;;;;;;;;5031436;28;20066;-82
2021/12/08 00:44:46;;;;;;;13.38;4.10;;;;;;;;;;5031921;28;20052;-82
2021/12/08 00:47:12;;;;;;;11.90;4.05;;;;;;;;;;5032769;28;20041;-82
2021/12/08 00:49:39;;;;;;;8.63;3.50;;;;;;;;;;5032935;28;20044;-82
2021/12/08 00:52:06;;;;;;;11.40;3.63;;;;;;;;;;5031586;28;20507;-82
2021/12/08 00:54:32;;;;;;;11.95;3.53;;;;;;;;;;5032297;28;20037;-82
2021/12/08 00:56:58;;;;;;;10.10;3.35;;;;;;;;;;5031732;28;20037;-82
2021/12/08 00:59:24;;;;;;;9.13;3.53;;;;;;;;;;5031478;28;20059;-82
2021/12/08 01:01:50;;;;;;;8.98;3.10;;;;;;;;;;5031588;28;20046;-82
2021/12/08 01:04:16;;;;;;;10.65;3.10;;;;;;;;;;5031399;28;20125;-82
2021/12/08 01:06:43;;;;;;;7.93;3.50;;;;;;;;;;5032619;28;20065;-82
2021/12/08 01:09:09;;;;;;;8.13;2.88;;;;;;;;;;5032874;28;20072;-82
2021/12/08 01:11:35;;;;;;;8.98;3.55;;;;;;;;;;5031238;28;20121;-81
2021/12/08 01:14:01;;;;;;;10.18;3.20;;;;;;;;;;5032514;28;20124;-81
2021/12/08 01:16:27;;;;;;;8.32;3.08;;;;;;;;;;5031261;28;20059;-82
2021/12/08 01:18:54;;;;;;;10.10;3.17;;;;;;;;;;5015124;28;20037;-82
2021/12/08 01:21:20;;;;;;;8.13;2.80;;;;;;;;;;5032560;28;20038;-82
2021/12/08 01:23:46;;;;;;;9.88;3.05;;;;;;;;;;5014636;28;20061;-81
2021/12/08 01:26:13;;;;;;;11.18;3.28;;;;;;;;;;5032586;28;20053;-82
2021/12/08 01:28:39;;;;;;;8.00;3.13;;;;;;;;;;5032510;28;20474;-82
2021/12/08 01:31:05;;;;;;;10.90;3.25;;;;;;;;;;5031020;28;20052;-82
2021/12/08 01:33:33;;;;;;;7.53;2.90;;;;;;;;;;5031237;28;20049;-82
2021/12/08 01:36:02;;;;;;;8.27;2.85;;;;;;;;;;5031080;28;20049;-81
2021/12/08 01:38:28;;;;;;;9.18;2.92;;;;;;;;;;5031475;28;20077;-81
2021/12/08 01:40:54;;;;;;;6.95;3.40;;;;;;;;;;5030903;28;20042;-81
2021/12/08 01:43:29;;;;;;;8.25;2.97;;;;;;;;;;5031091;28;20131;-82
2021/12/08 01:46:04;;;;;;;11.20;2.90;;;;;;;;;;5031062;28;20045;-82
2021/12/08 01:48:32;;;;;;;7.78;2.67;;;;;;;;;;5032607;28;20048;-82
2021/12/08 01:51:04;;;;;;;6.97;3.08;;;;;;;;;;5031019;28;20111;-82
2021/12/08 01:53:30;;;;;;;7.57;2.83;;;;;;;;;;5030926;28;20427;-82
2021/12/08 01:55:56;;;;;;;12.23;3.05;;;;;;;;;;5032378;28;20037;-82
2021/12/08 01:58:23;;;;;;;8.20;2.80;;;;;;;;;;5032463;28;20069;-82
2021/12/08 02:01:08;;;;;;;6.35;2.90;;;;;;;;;;5031179;28;20329;-81
2021/12/08 02:03:35;;;;;;;11.50;3.50;;;;;;;;;;5031172;28;20050;-82
2021/12/08 02:06:03;;;;;;;7.60;2.90;;;;;;;;;;5034014;28;20076;-82
2021/12/08 02:08:29;;;;;;;12.30;3.65;;;;;;;;;;5036056;28;20439;-82
2021/12/08 02:10:56;;;;;;;7.68;2.78;;;;;;;;;;5034472;28;20104;-82
2021/12/08 02:13:22;;;;;;;5.57;2.47;;;;;;;;;;5034403;28;20045;-82
2021/12/08 02:15:48;;;;;;;8.73;3.13;;;;;;;;;;5034363;28;20048;-82
2021/12/08 02:18:15;;;;;;;6.53;2.75;;;;;;;;;;5034726;28;20357;-82
2021/12/08 02:20:43;;;;;;;9.88;3.42;;;;;;;;;;5035427;28;20073;-82
2021/12/08 02:23:09;;;;;;;8.27;3.15;;;;;;;;;;5034867;28;20483;-83
2021/12/08 02:25:35;;;;;;;8.70;3.45;;;;;;;;;;5034325;28;20088;-82
2021/12/08 02:28:01;;;;;;;8.52;2.97;;;;;;;;;;5017858;28;20088;-82
2021/12/08 02:30:35;;;;;;;8.73;3.20;;;;;;;;;;5034067;28;20046;-82
2021/12/08 02:47:04;;;;;;;8.68;2.95;;;;;;;;;;5035010;28;20050;-82
2021/12/08 02:49:31;;;;;;;8.25;3.00;;;;;;;;;;5033852;28;20045;-82
2021/12/08 02:51:57;;;;;;;10.00;3.35;;;;;;;;;;5034929;28;20141;-82
2021/12/08 02:54:23;;;;;;;11.23;3.53;;;;;;;;;;5033681;28;20117;-82
2021/12/08 02:56:49;;;;;;;10.27;2.85;;;;;;;;;;5035023;28;20096;-83
2021/12/08 02:59:15;;;;;;;7.45;2.80;;;;;;;;;;5033957;28;20370;-82
2021/12/08 03:01:41;;;;;;;8.38;2.95;;;;;;;;;;5033438;28;20099;-83
2021/12/08 03:04:08;;;;;;;10.60;2.85;;;;;;;;;;5033702;28;20034;-82
2021/12/08 03:06:34;;;;;;;8.32;3.10;;;;;;;;;;5034606;28;20476;-82
2021/12/08 03:09:00;;;;;;;7.10;3.35;;;;;;;;;;5034762;28;20064;-82
2021/12/08 03:11:26;;;;;;;6.90;3.10;;;;;;;;;;5033290;28;20041;-82
2021/12/08 03:14:09;;;;;;;8.45;2.88;;;;;;;;;;5034566;28;20041;-82
2021/12/08 03:16:37;;;;;;;6.53;3.13;;;;;;;;;;5033878;28;20041;-82
2021/12/08 03:19:03;;;;;;;9.90;3.13;;;;;;;;;;5034260;28;20448;-82
2021/12/08 03:21:31;;;;;;;8.95;3.05;;;;;;;;;;5034635;28;20175;-83
2021/12/08 03:24:16;;;;;;;7.55;2.83;;;;;;;;;;5032795;28;20062;-82
2021/12/08 03:26:49;;;;;;;9.07;3.20;;;;;;;;;;5016689;28;20197;-82
2021/12/08 03:29:25;;;;;;;6.50;2.70;;;;;;;;;;5033178;28;20053;-82
2021/12/08 03:31:53;;;;;;;;;;;;;;;;;;5016904;28;20492;-82
2021/12/08 03:34:21;;;;;;;7.82;3.25;;;;;;;;;;5032860;28;19923;-82
2021/12/08 03:36:47;;;;;;;7.40;3.17;;;;;;;;;;5034445;28;20116;-82
2021/12/08 03:39:13;;;;;;;9.73;3.92;;;;;;;;;;5032572;28;20124;-82
2021/12/08 03:41:39;;;;;;;10.13;3.60;;;;;;;;;;5032841;28;20069;-82
2021/12/08 03:44:06;;;;;;;8.27;3.58;;;;;;;;;;5032449;28;20095;-82
2021/12/08 03:46:39;;;;;;;7.88;3.47;;;;;;;;;;5032982;28;20045;-82
2021/12/08 03:49:09;;;;;;;8.45;3.63;;;;;;;;;;5033814;28;20476;-82
2021/12/08 03:51:35;;;;;;;7.38;3.13;;;;;;;;;;5033932;28;20421;-82
2021/12/08 03:54:01;;;;;;;9.10;4.05;;;;;;;;;;5032585;28;20099;-82
2021/12/08 03:56:27;;;;;;;7.93;3.60;;;;;;;;;;5033685;28;20041;-82
2021/12/08 03:58:53;;;;;;;11.60;3.97;;;;;;;;;;5033682;28;20087;-82
2021/12/08 04:01:19;;;;;;;6.32;3.67;;;;;;;;;;5032515;28;20045;-82
2021/12/08 04:03:49;;;;;;;9.25;4.30;;;;;;;;;;5032078;28;20490;-82
2021/12/08 04:06:29;;;;;;;8.60;4.38;;;;;;;;;;5032398;28;20377;-83
2021/12/08 04:08:57;;;;;;;8.05;4.00;;;;;;;;;;5032366;28;20130;-82
2021/12/08 04:11:23;;;;;;;8.45;4.63;;;;;;;;;;5033646;28;20056;-82
2021/12/08 04:13:52;;;;;;;7.88;5.35;;;;;;;;;;5033231;28;20037;-82
2021/12/08 04:16:20;;;;;;;9.20;5.15;;;;;;;;;;5032413;28;20449;-82
2021/12/08 04:18:46;;;;;;;10.38;4.93;;;;;;;;;;5032092;28;20397;-82
2021/12/08 04:21:15;;;;;;;8.52;4.75;;;;;;;;;;5033347;28;20041;-82
2021/12/08 04:23:42;;;;;;;9.68;4.82;;;;;;;;;;5031834;28;20057;-82
2021/12/08 04:26:13;;;;;;;9.80;4.90;;;;;;;;;;5032254;28;20205;-82
2021/12/08 04:28:39;;;;;;;12.38;5.45;;;;;;;;;;5031686;28;20124;-82
2021/12/08 04:31:16;;;;;;;7.97;5.07;;;;;;;;;;5033187;28;20041;-82
2021/12/08 04:33:43;;;;;;;11.75;5.47;;;;;;;;;;5015211;28;20099;-82
2021/12/08 04:36:12;;;;;;;12.15;6.05;;;;;;;;;;5032096;28;20528;-82
2021/12/08 04:38:45;;;;;;;10.82;5.82;;;;;;;;;;5032017;28;20037;-82
2021/12/08 04:41:15;;;;;;;11.57;6.28;;;;;;;;;;5033253;28;20049;-82
2021/12/08 04:51:56;;;;;;;12.35;6.60;;;;;;;;;;5032894;28;20053;-82
2021/12/08 05:08:34;;;;;;;9.95;6.55;;;;;;;;;;5032747;28;20391;-81
2021/12/08 05:11:00;;;;;;;10.23;6.15;;;;;;;;;;5032991;28;20123;-83
2021/12/08 05:13:26;;;;;;;9.77;6.85;;;;;;;;;;5032451;28;20500;-82
2021/12/08 05:15:54;;;;;;;10.43;6.03;;;;;;;;;;5031384;28;20053;-82
2021/12/08 05:18:23;;;;;;;9.95;6.15;;;;;;;;;;5031433;28;20437;-83
2021/12/08 05:20:52;;;;;;;11.40;6.80;;;;;;;;;;5032629;28;20053;-82
2021/12/08 05:23:24;;;;;;;15.07;6.57;;;;;;;;;;5030854;28;20057;-82
2021/12/08 05:25:50;;;;;;;11.43;6.53;;;;;;;;;;5032787;28;20049;-82
2021/12/08 05:28:18;;;;;;;11.50;6.47;;;;;;;;;;5014830;28;20510;-82
2021/12/08 05:30:50;;;;;;;13.80;7.28;;;;;;;;;;5031333;28;20054;-82
2021/12/08 05:33:16;;;;;;;10.52;6.63;;;;;;;;;;5031026;28;20401;-82
2021/12/08 05:35:43;;;;;;;9.45;6.20;;;;;;;;;;5031543;28;20049;-82
2021/12/08 05:38:09;;;;;;;13.20;7.25;;;;;;;;;;5032261;28;20120;-82
2021/12/08 05:40:38;;;;;;;11.70;6.82;;;;;;;;;;5034058;28;20052;-82
2021/12/08 05:43:05;;;;;;;10.93;6.40;;;;;;;;;;5036450;28;20045;-82
2021/12/08 05:45:32;;;;;;;11.32;6.72;;;;;;;;;;5034748;28;20049;-82
2021/12/08 05:47:58;;;;;;;10.48;5.88;;;;;;;;;;5034932;28;20116;-82
2021/12/08 05:50:28;;;;;;;11.68;6.40;;;;;;;;;;5035827;28;20484;-82
2021/12/08 05:52:54;;;;;;;12.27;6.35;;;;;;;;;;5036315;28;20033;-82
2021/12/08 05:55:20;;;;;;;11.80;6.30;;;;;;;;;;5034621;28;20095;-82
2021/12/08 05:57:47;;;;;;;10.60;6.35;;;;;;;;;;5036256;28;20099;-82
2021/12/08 06:00:16;;;;;;;11.98;6.20;;;;;;;;;;5034546;28;20449;-82
2021/12/08 06:02:42;;;;;;;12.52;6.28;;;;;;;;;;5034936;28;20080;-82
2021/12/08 06:05:09;;;;;;;12.85;5.65;;;;;;;;;;5034462;28;20373;-82
2021/12/08 06:07:35;;;;;;;11.63;6.10;;;;;;;;;;5034470;28;20399;-82
2021/12/08 06:10:05;;;;;;;12.48;6.22;;;;;;;;;;5034200;28;20056;-82
2021/12/08 06:12:31;;;;;;;12.52;5.93;;;;;;;;;;5034409;28;20133;-82
2021/12/08 06:14:57;;;;;;;11.07;6.05;;;;;;;;;;5034282;28;20114;-82
2021/12/08 06:17:25;;;;;;;11.63;6.22;;;;;;;;;;5034416;28;20045;-82
2021/12/08 06:19:51;;;;;;;10.95;5.45;;;;;;;;;;5035365;28;20431;-82
2021/12/08 06:22:18;;;;;;;15.23;6.88;;;;;;;;;;5035517;28;20042;-82
2021/12/08 06:24:44;;;;;;;10.23;5.63;;;;;;;;;;5035061;28;20053;-82
2021/12/08 06:27:10;;;;;;;9.68;5.85;;;;;;;;;;5034272;28;20504;-82
2021/12/08 06:29:36;;;;;;;9.10;5.40;;;;;;;;;;5033860;28;20085;-82
2021/12/08 06:32:03;;;;;;;12.18;6.15;;;;;;;;;;5034080;28;20099;-82
2021/12/08 06:34:30;;;;;;;12.70;6.03;;;;;;;;;;5035290;28;20362;-82
2021/12/08 06:36:59;;;;;;;10.40;5.90;;;;;;;;;;5034097;28;20381;-82
2021/12/08 06:39:31;;;;;;;10.80;5.72;;;;;;;;;;5033777;28;20120;-83
2021/12/08 06:41:59;;;;;;;10.13;5.63;;;;;;;;;;5034179;28;20497;-82
2021/12/08 06:44:27;;;;;;;11.40;5.60;;;;;;;;;;5033819;28;20041;-82
2021/12/08 06:46:54;;;;;;;11.50;5.47;;;;;;;;;;5035086;28;20477;-83
2021/12/08 06:49:21;;;;;;;10.10;4.80;;;;;;;;;;5035071;28;20048;-82
2021/12/08 06:51:49;;;;;;;8.50;5.22;;;;;;;;;;5032392;28;20045;-83
2021/12/08 06:54:22;;;;;;;10.80;5.38;;;;;;;;;;5033468;28;20048;-83
2021/12/08 06:56:53;;;;;;;11.75;4.82;;;;;;;;;;5033999;28;20141;-82
2021/12/08 06:59:21;;;;;;;11.20;5.30;;;;;;;;;;5034898;28;20041;-83
2021/12/08 07:02:03;;;;;;;10.20;5.22;;;;;;;;;;5035008;28;20056;-83
2021/12/08 07:04:41;;;;;;;9.45;5.00;;;;;;;;;;5033601;28;20410;-82
2021/12/08 07:07:19;;;;;;;8.35;4.88;;;;;;;;;;5035058;28;20052;-83
2021/12/08 07:09:50;;;;;;;11.75;5.28;;;;;;;;;;5033520;28;20058;-82
2021/12/08 07:12:19;;;;;;;9.93;5.25;;;;;;;;;;5033524;28;20045;-82
2021/12/08 07:14:49;;;;;;;12.15;5.40;;;;;;;;;;5034632;28;20040;-82
2021/12/08 07:17:22;;;;;;;9.95;4.72;;;;;;;;;;5034605;28;20099;-82
2021/12/08 07:20:02;;;;;;;10.05;4.60;;;;;;;;;;5034629;28;20076;-82
2021/12/08 07:22:28;;;;;;;11.43;4.47;;;;;;;;;;5033312;28;20120;-82
2021/12/08 07:24:55;;;;;;;9.75;4.40;;;;;;;;;;5033063;28;20053;-82
2021/12/08 07:27:23;;;;;;;7.40;4.72;;;;;;;;;;5034588;28;20050;-82
2021/12/08 07:29:50;;;;;;;10.35;4.07;;;;;;;;;;5032555;28;20049;-82
2021/12/08 07:32:19;;;;;;;10.30;3.95;;;;;;;;;;5029507;28;20093;-82
2021/12/08 07:34:46;;;;;;;9.00;3.92;;;;;;;;;;5029490;28;20808;-81
2021/12/08 07:37:14;;;;;;;8.30;3.70;;;;;;;;;;5029449;28;20048;-82
2021/12/08 07:39:44;;;;;;;8.07;3.13;;;;;;;;;;5030701;28;20081;-82
2021/12/08 07:42:17;;;;;;;7.57;3.53;;;;;;;;;;5031586;28;20472;-81
2021/12/08 07:44:45;;;;;;;9.57;3.28;;;;;;;;;;5030777;28;20049;-82
2021/12/08 07:47:13;;;;;;;9.25;2.88;;;;;;;;;;5030793;28;20033;-81
2021/12/08 07:49:47;;;;;;;7.97;2.63;;;;;;;;;;5028940;28;20045;-81
2021/12/08 07:52:16;;;;;;;9.40;3.15;;;;;;;;;;5029271;28;20059;-83
2021/12/08 07:54:42;;;;;;;5.78;2.10;;;;;;;;;;5029095;28;20156;-85
2021/12/08 07:57:11;;;;;;;7.60;2.30;;;;;;;;;;5029446;28;20049;-83
2021/12/08 07:59:38;;;;;;;8.77;2.58;;;;;;;;;;5030373;28;20060;-78
2021/12/08 08:02:07;;;;;;;9.40;2.88;;;;;;;;;;5030254;28;20109;-80
2021/12/08 08:04:34;;;;;;;7.97;2.30;;;;;;;;;;5029345;28;20103;-83
2021/12/08 08:07:00;;;;;;;7.10;2.53;;;;;;;;;;5029036;28;20727;-81
2021/12/08 08:09:28;;;;;;;8.90;2.35;;;;;;;;;;5029141;28;20049;-81
2021/12/08 08:11:57;;;;;;;11.50;2.67;;;;;;;;;;5028899;28;20096;-82
2021/12/08 08:14:25;;;;;;;6.97;2.50;;;;;;;;;;5028755;28;20053;-81
2021/12/08 08:16:55;;;;;;;6.55;2.40;;;;;;;;;;5029964;28;20054;-82
2021/12/08 08:19:26;;;;;;;6.13;2.17;;;;;;;;;;5028815;28;20052;-82
2021/12/08 08:21:53;;;;;;;8.20;2.67;;;;;;;;;;5030180;28;20473;-81
2021/12/08 08:24:20;;;;;;;9.07;2.42;;;;;;;;;;5028601;28;20469;-81
2021/12/08 08:26:48;;;;;;;9.48;2.72;;;;;;;;;;5028404;28;20085;-81
2021/12/08 08:29:15;;;;;;;7.57;2.08;;;;;;;;;;5028843;28;20086;-81
2021/12/08 08:31:53;;;;;;;6.32;1.73;;;;;;;;;;5028336;28;20640;-81
2021/12/08 08:34:19;;;;;;;7.57;2.20;;;;;;;;;;5028581;28;20120;-81
2021/12/08 08:36:47;;;;;;;7.32;2.00;;;;;;;;;;5029581;28;20496;-82
2021/12/08 08:39:15;;;;;;;8.63;2.10;;;;;;;;;;5028716;28;20057;-81
2021/12/08 08:41:45;;;;;;;7.57;2.10;;;;;;;;;;5011316;28;20057;-82
2021/12/08 08:44:13;;;;;;;6.90;1.80;;;;;;;;;;5033090;28;20049;-82
2021/12/08 08:46:41;;;;;;;8.60;2.08;;;;;;;;;;5031768;28;20045;-81
2021/12/08 08:49:12;;;;;;;8.25;1.98;;;;;;;;;;5032857;28;20041;-81
2021/12/08 08:51:41;;;;;;;7.22;1.98;;;;;;;;;;5031340;28;20488;-80
2021/12/08 08:54:13;;;;;;;6.35;1.90;;;;;;;;;;5032860;28;20111;-81
2021/12/08 08:56:41;;;;;;;7.78;1.90;;;;;;;;;;5032807;28;20071;-81
2021/12/08 08:59:12;;;;;;;8.88;2.08;;;;;;;;;;5032878;28;20040;-81
2021/12/08 09:01:41;;;;;;;8.55;1.88;;;;;;;;;;5031555;28;20538;-81
2021/12/08 09:04:11;;;;;;;6.55;1.55;;;;;;;;;;5032560;28;20519;-84
2021/12/08 09:06:39;;;;;;;7.70;1.58;;;;;;;;;;5031181;28;20042;-80
2021/12/08 09:09:11;;;;;;;6.15;1.58;;;;;;;;;;5032567;28;20558;-81
2021/12/08 09:11:41;;;;;;;7.05;1.65;;;;;;;;;;5032553;28;20511;-81
2021/12/08 09:14:11;;;;;;;6.88;1.63;;;;;;;;;;5032919;28;20045;-81
2021/12/08 09:16:40;;;;;;;11.02;1.65;;;;;;;;;;5036448;28;20209;-81
2021/12/08 09:19:13;;;;;;;8.00;1.48;;;;;;;;;;5035599;28;20041;-81
2021/12/08 09:21:55;;;;;;;9.45;1.75;;;;;;;;;;5036473;28;20115;-81
2021/12/08 09:24:33;;;;;;;5.63;1.77;;;;;;;;;;5035658;28;20049;-81
2021/12/08 09:27:00;;;;;;;9.20;2.03;;;;;;;;;;5017278;28;20128;-81
2021/12/08 09:29:36;;;;;;;13.15;2.17;;;;;;;;;;5033902;28;20049;-81
2021/12/08 09:32:08;;;;;;;9.20;1.83;;;;;;;;;;5034126;28;19928;-80
2021/12/08 09:34:54;;;;;;;10.18;2.13;;;;;;;;;;5034077;28;20095;-81
2021/12/08 09:37:22;;;;;;;8.18;2.92;;;;;;;;;;5017437;28;20064;-80
2021/12/08 09:39:56;;;;;;;9.65;1.85;;;;;;;;;;5034902;28;20077;-80
2021/12/08 09:42:31;;;;;;;15.65;2.33;;;;;;;;;;5033373;28;20045;-82
2021/12/08 09:44:59;;;;;;;9.68;1.80;;;;;;;;;;5033935;28;20045;-82
2021/12/08 09:47:29;;;;;;;6.65;2.00;;;;;;;;;;5033432;28;20120;-82
2021/12/08 09:49:56;;;;;;;10.15;2.42;;;;;;;;;;5033536;28;20423;-82
2021/12/08 09:52:23;;;;;;;10.93;2.10;;;;;;;;;;5033241;28;20042;-82
2021/12/08 09:54:50;;;;;;;7.93;2.00;;;;;;;;;;5034733;28;20510;-82
2021/12/08 09:57:16;;;;;;;7.80;2.33;;;;;;;;;;5033544;28;20038;-82
2021/12/08 09:59:47;;;;;;;8.27;2.03;;;;;;;;;;5033555;28;20073;-82
2021/12/08 10:02:28;;;;;;;9.65;2.17;;;;;;;;;;5034723;28;20037;-82
2021/12/08 10:05:03;;;;;;;11.80;2.15;;;;;;;;;;5033785;28;20493;-81
2021/12/08 10:07:29;;;;;;;9.05;1.85;;;;;;;;;;5034660;28;20084;-82
2021/12/08 10:09:55;;;;;;;12.70;2.78;;;;;;;;;;5033378;28;20398;-82
2021/12/08 10:12:22;;;;;;;7.80;1.90;;;;;;;;;;5033299;28;20472;-82
2021/12/08 10:14:50;;;;;;;8.63;2.28;;;;;;;;;;5034706;28;20067;-82
2021/12/08 10:17:17;;;;;;;13.15;2.38;;;;;;;;;;5034538;28;20048;-82
2021/12/08 10:19:43;;;;;;;9.75;1.92;;;;;;;;;;5033430;28;20096;-81
2021/12/08 10:22:20;;;;;;;7.45;1.88;;;;;;;;;;5032867;28;20045;-79
2021/12/08 10:25:05;;;;;;;8.02;2.13;;;;;;;;;;4998378;28;1016745;-80
2021/12/08 10:27:32;;;;;;;11.75;2.65;;;;;;;;;;5035620;28;20216;-80
2021/12/08 10:30:17;;;;;;;12.60;2.35;;;;;;;;;;5034077;28;20484;-80
2021/12/08 10:32:42;;;;;;;8.75;2.15;;;;;;;;;;5033878;28;20047;-80
2021/12/08 10:35:38;;;;;;;9.82;2.30;;;;;;;;;;5035534;28;20120;-80
2021/12/08 10:38:04;;;;;;;7.97;2.38;;;;;;;;;;5033901;28;20041;-80
2021/12/08 10:40:30;;;;;;;8.15;2.20;;;;;;;;;;5034195;28;20396;-80
2021/12/08 10:42:56;;;;;;;8.77;2.63;;;;;;;;;;5034859;28;20041;-80
2021/12/08 10:45:26;;;;;;;7.45;1.85;;;;;;;;;;5034091;28;20056;-80
2021/12/08 10:47:58;;;;;;;12.05;2.30;;;;;;;;;;5033796;28;20068;-80
2021/12/08 10:55:59;;;;;;;9.85;2.45;;;;;;;;;;5035306;28;20045;-80
2021/12/08 10:58:28;;;;;;;11.02;2.25;;;;;;;;;;5035016;28;20112;-80
2021/12/08 11:00:56;;;;;;;7.60;2.22;;;;;;;;;;5034901;28;20092;-80
2021/12/08 11:03:22;;;;;;;12.48;2.40;;;;;;;;;;5033296;28;20041;-82
2021/12/08 11:05:50;;;;;;;7.93;1.90;;;;;;;;;;5034778;28;20543;-80
2021/12/08 11:08:16;;;;;;;8.75;2.90;;;;;;;;;;5033208;28;20056;-80
2021/12/08 11:11:08;;;;;;;7.30;2.28;;;;;;;;;;5033499;28;20116;-81
2021/12/08 11:13:39;;;;;;;11.25;2.28;;;;;;;;;;5028896;28;20511;-81
2021/12/08 11:16:13;;;;;;;10.00;2.40;;;;;;;;;;5034838;28;20392;-80
2021/12/08 11:18:44;;;;;;;10.32;2.38;;;;;;;;;;5016840;28;20041;-81
2021/12/08 11:21:15;;;;;;;6.95;2.33;;;;;;;;;;5033250;28;20045;-81
2021/12/08 11:23:42;;;;;;;9.10;2.40;;;;;;;;;;5034254;28;20080;-81
2021/12/08 11:26:14;;;;;;;8.02;2.28;;;;;;;;;;5033131;28;20057;-80
2021/12/08 11:28:40;;;;;;;11.10;2.85;;;;;;;;;;5034132;28;20404;-80
2021/12/08 11:31:11;;;;;;;12.77;2.33;;;;;;;;;;5034546;28;20041;-80
2021/12/08 11:33:42;;;;;;;7.15;2.45;;;;;;;;;;5032999;28;20052;-80
2021/12/08 11:36:13;;;;;;;8.85;1.90;;;;;;;;;;5032993;28;20045;-81
2021/12/08 11:38:40;;;;;;;11.82;2.90;;;;;;;;;;5031972;28;20093;-81
2021/12/08 11:41:10;;;;;;;7.95;2.85;;;;;;;;;;5033104;28;20408;-80
2021/12/08 11:43:36;;;;;;;7.03;1.67;;;;;;;;;;5033995;28;20044;-81
2021/12/08 11:46:16;;;;;;;10.48;2.40;;;;;;;;;;5034233;28;20042;-81
2021/12/08 11:48:58;;;;;;;10.00;1.73;;;;;;;;;;5032564;28;20041;-81
2021/12/08 11:51:24;;;;;;;8.30;2.30;;;;;;;;;;5032688;28;20128;-80
2021/12/08 11:53:50;;;;;;;7.82;2.22;;;;;;;;;;5033867;28;20236;-80
2021/12/08 11:56:33;;;;;;;7.88;2.00;;;;;;;;;;5034032;28;20037;-82
2021/12/08 11:59:00;;;;;;;7.53;2.35;;;;;;;;;;5032218;28;20047;-81
2021/12/08 12:01:26;;;;;;;10.10;2.03;;;;;;;;;;5032436;28;20049;-81
2021/12/08 12:03:52;;;;;;;8.13;2.08;;;;;;;;;;5033493;28;20048;-80
2021/12/08 12:06:18;;;;;;;6.13;2.00;;;;;;;;;;5032426;28;20057;-81
2021/12/08 12:08:46;;;;;;;7.03;2.22;;;;;;;;;;5015792;28;20041;-81
2021/12/08 12:11:13;;;;;;;7.57;2.00;;;;;;;;;;5015890;28;20041;-81
2021/12/08 12:13:39;;;;;;;7.47;1.92;;;;;;;;;;5032177;28;20029;-82
2021/12/08 12:16:05;;;;;;;9.13;2.90;;;;;;;;;;5032397;28;20104;-81
2021/12/08 12:18:32;;;;;;;10.80;2.78;;;;;;;;;;5031880;28;20037;-80
2021/12/08 12:21:18;;;;;;;7.60;2.10;;;;;;;;;;5033555;28;20045;-81
2021/12/08 12:23:45;;;;;;;;;;;;;;;;;;5032214;28;20129;-80
2021/12/08 12:26:23;;;;;;;8.13;2.15;;;;;;;;;;5032184;28;20342;-81
2021/12/08 12:29:07;;;;;;;8.82;2.10;;;;;;;;;;5032017;28;20041;-80
2021/12/08 12:31:49;;;;;;;6.53;2.13;;;;;;;;;;5031929;28;20081;-81
2021/12/08 12:34:26;;;;;;;7.78;1.80;;;;;;;;;;5031813;28;20045;-80
2021/12/08 12:36:53;;;;;;;9.50;2.33;;;;;;;;;;5033415;28;20041;-83
2021/12/08 12:39:20;;;;;;;9.48;2.10;;;;;;;;;;5030630;28;20041;-82
2021/12/08 12:42:10;;;;;;;11.07;2.60;;;;;;;;;;5033321;28;20262;-82
2021/12/08 12:44:37;;;;;;;10.43;2.03;;;;;;;;;;5033019;28;20053;-82
2021/12/08 12:47:08;;;;;;;9.27;2.30;;;;;;;;;;5031933;28;20484;-83
2021/12/08 12:49:35;;;;;;;7.80;2.10;;;;;;;;;;5015180;28;20041;-82
2021/12/08 12:52:02;;;;;;;9.65;2.20;;;;;;;;;;5031875;28;20056;-83
2021/12/08 12:54:28;;;;;;;7.72;2.38;;;;;;;;;;5031688;28;20067;-83
2021/12/08 12:56:56;;;;;;;7.40;2.00;;;;;;;;;;5032997;28;20041;-85
2021/12/08 12:59:25;;;;;;;10.00;2.65;;;;;;;;;;5032889;28;20492;-83
2021/12/08 13:02:06;;;;;;;6.78;1.95;;;;;;;;;;5031783;28;20076;-82
2021/12/08 13:04:35;;;;;;;11.15;2.50;;;;;;;;;;5032873;28;20284;-88
2021/12/08 13:07:06;;;;;;;9.18;1.90;;;;;;;;;;5031520;28;20116;-82
2021/12/08 13:09:37;;;;;;;10.93;2.13;;;;;;;;;;5031440;28;20041;-82
2021/12/08 13:12:14;;;;;;;11.27;2.40;;;;;;;;;;5031388;28;20047;-82
2021/12/08 13:14:40;;;;;;;9.52;2.20;;;;;;;;;;5031378;28;20045;-83
2021/12/08 13:17:08;;;;;;;7.72;2.10;;;;;;;;;;5031361;28;20045;-82
2021/12/08 13:19:38;;;;;;;12.25;2.28;;;;;;;;;;5031318;28;20049;-82
2021/12/08 13:22:04;;;;;;;10.52;2.53;;;;;;;;;;5031389;28;20077;-82
2021/12/08 13:24:38;;;;;;;7.75;2.13;;;;;;;;;;5030960;28;20093;-83
2021/12/08 13:27:09;;;;;;;10.30;1.98;;;;;;;;;;5032771;28;20042;-80
2021/12/08 13:29:38;;;;;;;5.95;2.00;;;;;;;;;;5031131;28;20056;-83
2021/12/08 13:32:12;;;;;;;7.80;1.95;;;;;;;;;;5032989;28;20050;-82
2021/12/08 13:34:40;;;;;;;7.35;1.83;;;;;;;;;;5030995;28;20045;-83
2021/12/08 13:37:35;;;;;;;7.68;1.95;;;;;;;;;;5032666;28;20034;-83
2021/12/08 13:40:08;;;;;;;7.20;1.98;;;;;;;;;;5015431;28;20137;-84
2021/12/08 13:42:46;;;;;;;8.63;2.13;;;;;;;;;;5032462;28;20064;-81
2021/12/08 13:45:13;;;;;;;7.35;1.85;;;;;;;;;;5031116;28;20484;-84
2021/12/08 13:47:41;;;;;;;6.53;1.65;;;;;;;;;;5014595;28;20095;-84
2021/12/08 13:50:07;;;;;;;5.90;2.45;;;;;;;;;;5031900;28;20056;-81
2021/12/08 13:52:34;;;;;;;8.80;1.77;;;;;;;;;;5032411;28;20120;-82
2021/12/08 13:55:09;;;;;;;6.22;1.95;;;;;;;;;;5031052;28;20041;-83
2021/12/08 13:57:35;;;;;;;11.95;2.40;;;;;;;;;;5032451;28;20042;-83
2021/12/08 14:00:13;;;;;;;9.73;1.80;;;;;;;;;;5031138;28;20454;-83
2021/12/08 14:02:39;;;;;;;8.73;2.13;;;;;;;;;;5034499;28;20049;-83
2021/12/08 14:05:08;;;;;;;8.93;2.28;;;;;;;;;;5034430;28;20045;-83
2021/12/08 14:07:35;;;;;;;7.30;1.98;;;;;;;;;;5034609;28;20061;-83
2021/12/08 14:10:04;;;;;;;9.80;2.35;;;;;;;;;;5034563;28;20215;-83
2021/12/08 14:12:48;;;;;;;12.00;2.00;;;;;;;;;;5034471;28;20120;-87
2021/12/08 14:15:23;;;;;;;6.75;2.20;;;;;;;;;;5034232;28;20530;-83
2021/12/08 14:17:49;;;;;;;14.07;2.70;;;;;;;;;;5035616;28;20568;-84
2021/12/08 14:20:32;;;;;;;10.90;2.25;;;;;;;;;;5034065;28;20128;-84
2021/12/08 14:23:01;;;;;;;9.27;1.90;;;;;;;;;;5035487;28;20046;-84
2021/12/08 14:25:35;;;;;;;8.10;1.85;;;;;;;;;;5033855;28;20049;-84
2021/12/08 14:28:02;;;;;;;8.25;1.85;;;;;;;;;;5034344;28;20427;-84
2021/12/08 14:30:28;;;;;;;7.60;2.22;;;;;;;;;;5034110;28;20038;-84
2021/12/08 14:33:04;;;;;;;10.05;2.38;;;;;;;;;;5034052;28;20103;-83
2021/12/08 14:35:30;;;;;;;8.88;2.15;;;;;;;;;;5034070;28;20048;-84
2021/12/08 14:38:06;;;;;;;11.05;2.65;;;;;;;;;;5035470;28;20073;-84
2021/12/08 14:40:32;;;;;;;9.23;1.55;;;;;;;;;;5035371;28;20468;-84
2021/12/08 14:42:58;;;;;;;10.57;1.85;;;;;;;;;;5035354;28;20172;-84
2021/12/08 14:45:28;;;;;;;5.65;1.60;;;;;;;;;;5033961;28;20045;-84
2021/12/08 14:47:54;;;;;;;11.63;2.15;;;;;;;;;;5033910;28;20092;-83
2021/12/08 14:50:23;;;;;;;7.25;1.60;;;;;;;;;;5035071;28;20076;-84
2021/12/08 14:52:50;;;;;;;8.10;1.70;;;;;;;;;;5034923;28;20073;-87
2021/12/08 14:55:21;;;;;;;9.50;2.75;;;;;;;;;;5033549;28;20073;-84
2021/12/08 14:57:51;;;;;;;9.13;1.80;;;;;;;;;;5017515;28;20098;-84
2021/12/08 15:00:20;;;;;;;8.90;1.88;;;;;;;;;;5033533;28;20115;-84
2021/12/08 15:02:57;;;;;;;7.40;1.77;;;;;;;;;;5033941;28;20464;-84
2021/12/08 15:05:23;;;;;;;9.45;1.85;;;;;;;;;;5033593;28;20400;-84
2021/12/08 15:07:51;;;;;;;7.10;1.70;;;;;;;;;;5033809;28;20048;-84
2021/12/08 15:10:25;;;;;;;10.23;1.90;;;;;;;;;;5033420;28;20507;-84
2021/12/08 15:12:51;;;;;;;6.53;1.73;;;;;;;;;;5032243;28;20492;-84
2021/12/08 15:15:21;;;;;;;4.97;1.70;;;;;;;;;;5034727;28;20037;-83
2021/12/08 15:17:48;;;;;;;9.23;1.73;;;;;;;;;;5016786;28;20125;-85
2021/12/08 15:20:15;;;;;;;9.90;1.65;;;;;;;;;;5034596;28;20069;-84
2021/12/08 15:22:43;;;;;;;8.95;1.67;;;;;;;;;;5033288;28;20033;-84
2021/12/08 15:25:12;;;;;;;8.20;2.00;;;;;;;;;;5032957;28;20103;-83
2021/12/08 15:27:38;;;;;;;7.60;1.67;;;;;;;;;;5033121;28;20041;-84
2021/12/08 15:30:06;;;;;;;5.28;1.55;;;;;;;;;;5034259;28;20061;-83
2021/12/08 15:32:32;;;;;;;7.70;1.83;;;;;;;;;;5033076;28;20037;-83
2021/12/08 15:35:04;;;;;;;7.18;1.50;;;;;;;;;;5034236;28;20042;-84
2021/12/08 15:37:31;;;;;;;6.60;1.60;;;;;;;;;;5034042;28;20144;-83